Time;durP1;ratioP1;P1;durP2;ratioP2;P2;SDS_P1;SDS_P2;PMS_P1;PMS_P2;Temp;Humidity;BMP_temperature;BMP_pressure;BME280_temperature;BME280_humidity;BME280_pressure;Samples;Min_cycle;Max_cycle;Signal;HPM_P1;HPM_P2
2022/03/24 00:00:27;;;;;;;10.38;5.43;;;;;;;;;;2079452;28;20605;-57
2022/03/24 00:01:46;;;;;;;6.05;5.55;;;;;;;;;;2076587;28;20025;-56
2022/03/24 00:03:06;;;;;;;7.13;5.63;;;;;;;;;;2078648;28;20022;-58
2022/03/24 00:04:25;;;;;;;7.63;5.63;;;;;;;;;;2080512;28;20053;-56
2022/03/24 00:05:44;;;;;;;9.93;6.32;;;;;;;;;;2079735;28;20025;-58
2022/03/24 00:07:04;;;;;;;7.38;5.60;;;;;;;;;;2080940;28;20124;-57
2022/03/24 00:08:22;;;;;;;9.77;5.75;;;;;;;;;;2079238;28;20116;-57
2022/03/24 00:09:41;;;;;;;7.20;5.70;;;;;;;;;;2081379;28;20026;-57
2022/03/24 00:11:00;;;;;;;7.88;5.55;;;;;;;;;;2079909;28;20033;-57
2022/03/24 00:12:21;;;;;;;9.38;5.25;;;;;;;;;;2079478;28;20484;-57
2022/03/24 00:13:40;;;;;;;8.68;5.65;;;;;;;;;;2081206;28;20495;-57
2022/03/24 00:14:59;;;;;;;6.50;5.32;;;;;;;;;;2078996;28;20029;-58
2022/03/24 00:16:19;;;;;;;5.88;5.20;;;;;;;;;;2080865;28;20074;-57
2022/03/24 00:17:38;;;;;;;6.00;5.05;;;;;;;;;;2079918;28;20496;-57
2022/03/24 00:18:57;;;;;;;6.15;5.32;;;;;;;;;;2078782;28;20037;-58
2022/03/24 00:20:16;;;;;;;6.93;5.55;;;;;;;;;;2080492;28;20029;-58
2022/03/24 00:21:35;;;;;;;8.48;5.40;;;;;;;;;;2080549;28;20033;-58
2022/03/24 00:22:54;;;;;;;6.13;5.53;;;;;;;;;;2080727;28;20541;-58
2022/03/24 00:24:13;;;;;;;7.13;5.95;;;;;;;;;;2079920;28;20026;-57
2022/03/24 00:25:32;;;;;;;6.60;5.80;;;;;;;;;;2079318;28;20030;-57
2022/03/24 00:26:51;;;;;;;6.05;5.55;;;;;;;;;;2080301;28;20514;-58
2022/03/24 00:28:10;;;;;;;6.97;5.35;;;;;;;;;;2079614;28;20092;-57
2022/03/24 00:29:29;;;;;;;6.15;5.55;;;;;;;;;;2082071;28;20500;-56
2022/03/24 00:30:47;;;;;;;7.63;5.43;;;;;;;;;;2079140;28;20120;-58
2022/03/24 00:32:06;;;;;;;6.10;5.35;;;;;;;;;;2078113;28;20163;-58
2022/03/24 00:33:25;;;;;;;7.72;5.93;;;;;;;;;;2079447;28;20041;-59
2022/03/24 00:34:45;;;;;;;9.43;5.28;;;;;;;;;;2080400;28;20030;-60
2022/03/24 00:36:04;;;;;;;6.57;5.07;;;;;;;;;;2081390;28;20109;-58
2022/03/24 00:37:25;;;;;;;7.22;5.07;;;;;;;;;;2081215;28;20037;-58
2022/03/24 00:38:43;;;;;;;8.10;5.53;;;;;;;;;;2079668;28;20112;-58
2022/03/24 00:40:07;;;;;;;5.93;5.25;;;;;;;;;;2079882;28;20531;-58
2022/03/24 00:41:28;;;;;;;;;;;;;;;;;;2080872;28;20043;-58
2022/03/24 00:42:47;;;;;;;7.82;5.30;;;;;;;;;;2079721;28;19909;-58
2022/03/24 00:44:07;;;;;;;8.07;5.22;;;;;;;;;;2080545;28;20038;-58
2022/03/24 00:45:26;;;;;;;6.65;5.25;;;;;;;;;;2078314;28;20052;-58
2022/03/24 00:46:45;;;;;;;6.47;5.03;;;;;;;;;;2077765;28;20034;-58
2022/03/24 00:48:04;;;;;;;6.57;5.53;;;;;;;;;;2079737;28;20487;-58
2022/03/24 00:49:23;;;;;;;5.90;4.85;;;;;;;;;;2079775;28;20108;-58
2022/03/24 00:50:43;;;;;;;7.07;5.10;;;;;;;;;;2080254;28;20030;-57
2022/03/24 00:52:02;;;;;;;6.78;5.38;;;;;;;;;;2081221;28;20029;-58
2022/03/24 00:53:21;;;;;;;6.30;5.22;;;;;;;;;;2079096;28;20033;-59
2022/03/24 00:54:40;;;;;;;8.15;5.65;;;;;;;;;;2079253;28;20034;-63
2022/03/24 00:55:59;;;;;;;7.95;5.30;;;;;;;;;;2079924;28;20492;-58
2022/03/24 00:57:19;;;;;;;8.15;5.43;;;;;;;;;;2080812;28;20116;-58
2022/03/24 00:58:38;;;;;;;6.15;5.53;;;;;;;;;;2079234;28;20027;-58
2022/03/24 00:59:57;;;;;;;8.52;5.07;;;;;;;;;;2077998;28;20033;-58
2022/03/24 01:01:16;;;;;;;7.13;5.63;;;;;;;;;;2080890;28;20033;-58
2022/03/24 01:02:38;;;;;;;6.78;5.47;;;;;;;;;;2078142;28;20026;-58
2022/03/24 01:03:57;;;;;;;6.35;5.40;;;;;;;;;;2079286;28;20025;-58
2022/03/24 01:05:16;;;;;;;6.55;5.63;;;;;;;;;;2079210;28;20033;-58
2022/03/24 01:06:36;;;;;;;13.60;5.68;;;;;;;;;;2079841;28;20029;-58
2022/03/24 01:07:56;;;;;;;6.40;5.80;;;;;;;;;;2080798;28;20044;-57
2022/03/24 01:09:15;;;;;;;9.35;5.93;;;;;;;;;;2079792;28;20414;-58
2022/03/24 01:10:34;;;;;;;5.80;5.30;;;;;;;;;;2078820;28;20041;-58
2022/03/24 01:11:53;;;;;;;5.60;5.10;;;;;;;;;;2078684;28;20068;-57
2022/03/24 01:13:12;;;;;;;5.43;4.93;;;;;;;;;;2080520;28;20472;-58
2022/03/24 01:14:35;;;;;;;11.60;5.57;;;;;;;;;;2080302;28;20037;-58
2022/03/24 01:15:54;;;;;;;;;;;;;;;;;;2081183;28;20475;-58
2022/03/24 01:17:16;;;;;;;7.97;5.25;;;;;;;;;;2079846;28;19917;-57
2022/03/24 01:18:37;;;;;;;5.97;5.38;;;;;;;;;;2080248;28;20029;-58
2022/03/24 01:19:56;;;;;;;9.80;5.65;;;;;;;;;;2078767;28;20091;-57
2022/03/24 01:21:16;;;;;;;6.82;5.20;;;;;;;;;;2080909;28;20507;-57
2022/03/24 01:22:35;;;;;;;7.28;5.82;;;;;;;;;;2079413;28;20491;-57
2022/03/24 01:23:54;;;;;;;9.20;6.47;;;;;;;;;;2075679;28;20038;-57
2022/03/24 01:25:13;;;;;;;7.63;5.75;;;;;;;;;;2079555;28;20033;-58
2022/03/24 01:26:32;;;;;;;6.15;5.60;;;;;;;;;;2081629;28;20533;-58
2022/03/24 01:27:51;;;;;;;6.45;5.82;;;;;;;;;;2081250;28;20057;-57
2022/03/24 01:29:11;;;;;;;8.75;5.45;;;;;;;;;;2078879;28;20391;-58
2022/03/24 01:30:30;;;;;;;5.65;4.90;;;;;;;;;;2077638;28;20030;-56
2022/03/24 01:31:49;;;;;;;8.18;5.60;;;;;;;;;;2079851;28;20033;-58
2022/03/24 01:33:08;;;;;;;5.97;5.45;;;;;;;;;;2077403;28;20396;-57
2022/03/24 01:34:27;;;;;;;8.00;5.80;;;;;;;;;;2076500;28;20037;-58
2022/03/24 01:35:47;;;;;;;10.68;5.63;;;;;;;;;;2078245;28;20045;-58
2022/03/24 01:37:06;;;;;;;8.38;6.00;;;;;;;;;;2079701;28;20064;-57
2022/03/24 01:38:25;;;;;;;6.40;5.50;;;;;;;;;;2079754;28;20022;-58
2022/03/24 01:39:44;;;;;;;7.00;5.35;;;;;;;;;;2078637;28;20499;-58
2022/03/24 01:41:03;;;;;;;8.20;5.88;;;;;;;;;;2078994;28;20037;-57
2022/03/24 01:42:22;;;;;;;6.00;5.45;;;;;;;;;;2078925;28;20030;-57
2022/03/24 01:43:42;;;;;;;6.53;5.63;;;;;;;;;;2079622;28;20033;-58
2022/03/24 01:45:01;;;;;;;6.32;5.35;;;;;;;;;;2079189;28;20451;-57
2022/03/24 01:46:21;;;;;;;7.78;5.50;;;;;;;;;;2080350;28;20061;-57
2022/03/24 01:47:40;;;;;;;9.98;5.45;;;;;;;;;;2079744;28;20026;-56
2022/03/24 01:48:59;;;;;;;10.25;6.20;;;;;;;;;;2079634;28;20484;-57
2022/03/24 01:50:19;;;;;;;6.53;5.70;;;;;;;;;;2079306;28;20033;-57
2022/03/24 01:51:37;;;;;;;6.47;5.88;;;;;;;;;;2079800;28;20061;-57
2022/03/24 01:52:56;;;;;;;6.45;5.45;;;;;;;;;;2079263;28;20029;-57
2022/03/24 01:54:15;;;;;;;6.43;5.88;;;;;;;;;;2078819;28;20041;-57
2022/03/24 01:55:34;;;;;;;5.90;5.30;;;;;;;;;;2080424;28;20388;-56
2022/03/24 01:56:53;;;;;;;6.88;6.18;;;;;;;;;;2079664;28;20033;-57
2022/03/24 01:58:13;;;;;;;6.53;5.70;;;;;;;;;;2078736;28;20030;-57
2022/03/24 01:59:32;;;;;;;7.97;6.03;;;;;;;;;;2080801;28;20034;-57
2022/03/24 02:00:51;;;;;;;6.60;5.90;;;;;;;;;;2079626;28;20496;-57
2022/03/24 02:02:11;;;;;;;9.10;5.82;;;;;;;;;;2078637;28;20034;-57
2022/03/24 02:03:30;;;;;;;8.13;6.15;;;;;;;;;;2080141;28;20036;-57
2022/03/24 02:04:49;;;;;;;7.40;5.65;;;;;;;;;;2078864;28;20061;-57
2022/03/24 02:06:09;;;;;;;6.65;5.60;;;;;;;;;;2080564;28;20033;-58
2022/03/24 02:07:32;;;;;;;6.95;5.65;;;;;;;;;;2079246;28;20100;-57
2022/03/24 02:08:50;;;;;;;7.38;5.60;;;;;;;;;;2079836;28;20026;-57
2022/03/24 02:10:11;;;;;;;5.65;5.15;;;;;;;;;;2078280;28;20042;-58
2022/03/24 02:11:30;;;;;;;6.22;5.70;;;;;;;;;;2078751;28;20426;-57
2022/03/24 02:12:52;;;;;;;6.18;5.57;;;;;;;;;;2080299;28;20049;-56
2022/03/24 02:14:11;;;;;;;11.02;6.10;;;;;;;;;;2080684;28;20431;-57
2022/03/24 02:15:31;;;;;;;6.00;5.40;;;;;;;;;;2079399;28;20037;-58
2022/03/24 02:16:50;;;;;;;9.00;6.00;;;;;;;;;;2078123;28;20021;-57
2022/03/24 02:18:13;;;;;;;6.72;5.68;;;;;;;;;;2079794;28;20037;-57
2022/03/24 02:19:34;;;;;;;6.50;5.82;;;;;;;;;;2078714;28;20029;-57
2022/03/24 02:20:52;;;;;;;6.50;5.82;;;;;;;;;;2073046;28;20029;-56
2022/03/24 02:22:11;;;;;;;5.85;5.10;;;;;;;;;;2077681;28;20477;-57
2022/03/24 02:23:30;;;;;;;6.60;5.40;;;;;;;;;;2079885;28;20017;-58
2022/03/24 02:24:49;;;;;;;11.73;5.70;;;;;;;;;;2078622;28;20489;-57
2022/03/24 02:26:09;;;;;;;8.90;5.97;;;;;;;;;;2080058;28;20093;-56
2022/03/24 02:27:28;;;;;;;8.40;6.28;;;;;;;;;;2078009;28;20025;-57
2022/03/24 02:28:47;;;;;;;6.55;5.50;;;;;;;;;;2080704;28;20492;-57
2022/03/24 02:30:06;;;;;;;7.18;5.72;;;;;;;;;;2078529;28;20034;-56
2022/03/24 02:31:27;;;;;;;13.32;7.32;;;;;;;;;;2079656;28;20112;-57
2022/03/24 02:32:46;;;;;;;8.90;6.30;;;;;;;;;;2071642;28;20034;-58
2022/03/24 02:35:48;;;;;;;9.48;6.40;;;;;;;;;;2079838;28;20415;-56
2022/03/24 02:37:09;;;;;;;10.27;5.70;;;;;;;;;;2080066;28;20033;-57
2022/03/24 02:38:28;;;;;;;7.28;6.03;;;;;;;;;;2080862;28;20030;-57
2022/03/24 02:39:48;;;;;;;7.70;6.53;;;;;;;;;;2080377;28;20067;-57
2022/03/24 02:41:07;;;;;;;6.82;6.10;;;;;;;;;;2079351;28;20030;-57
2022/03/24 02:42:27;;;;;;;9.13;6.22;;;;;;;;;;2079948;28;20112;-57
2022/03/24 02:43:46;;;;;;;6.53;5.95;;;;;;;;;;2080001;28;20053;-57
2022/03/24 02:45:06;;;;;;;6.85;6.20;;;;;;;;;;2075204;28;20030;-57
2022/03/24 02:46:26;;;;;;;10.35;5.53;;;;;;;;;;2077416;28;20033;-58
2022/03/24 02:47:46;;;;;;;6.47;5.78;;;;;;;;;;2079064;28;20025;-57
2022/03/24 02:49:05;;;;;;;11.00;6.20;;;;;;;;;;2079089;28;20022;-58
2022/03/24 02:50:24;;;;;;;7.50;5.88;;;;;;;;;;2079080;28;20034;-58
2022/03/24 02:51:43;;;;;;;9.98;6.07;;;;;;;;;;2079669;28;20025;-57
2022/03/24 02:53:02;;;;;;;8.18;6.22;;;;;;;;;;2079634;28;20021;-57
2022/03/24 02:54:22;;;;;;;8.45;5.63;;;;;;;;;;2078933;28;20435;-57
2022/03/24 02:55:41;;;;;;;8.23;5.90;;;;;;;;;;2078857;28;20037;-58
2022/03/24 02:57:00;;;;;;;10.15;6.00;;;;;;;;;;2079339;28;20089;-58
2022/03/24 02:58:18;;;;;;;9.07;5.88;;;;;;;;;;2080147;28;20025;-57
2022/03/24 02:59:38;;;;;;;11.80;6.93;;;;;;;;;;2080395;28;20112;-57
2022/03/24 03:00:57;;;;;;;6.60;5.95;;;;;;;;;;2076939;28;20029;-57
2022/03/24 03:02:17;;;;;;;6.88;6.10;;;;;;;;;;2079044;28;20030;-58
2022/03/24 03:03:36;;;;;;;6.25;5.63;;;;;;;;;;2080997;28;20431;-63
2022/03/24 03:04:55;;;;;;;6.68;5.80;;;;;;;;;;2077398;28;20053;-57
2022/03/24 03:06:14;;;;;;;7.50;5.65;;;;;;;;;;2078467;28;20057;-57
2022/03/24 03:07:33;;;;;;;7.25;6.10;;;;;;;;;;2079972;28;20033;-57
2022/03/24 03:08:51;;;;;;;7.35;5.75;;;;;;;;;;2077870;28;20053;-56
2022/03/24 03:10:11;;;;;;;9.85;6.10;;;;;;;;;;2078777;28;20030;-57
2022/03/24 03:11:36;;;;;;;7.30;5.95;;;;;;;;;;2080184;28;20038;-56
2022/03/24 03:12:55;;;;;;;7.07;5.90;;;;;;;;;;2080064;28;20033;-56
2022/03/24 03:14:15;;;;;;;8.30;6.03;;;;;;;;;;2079785;28;20022;-57
2022/03/24 03:15:35;;;;;;;7.85;5.88;;;;;;;;;;2076896;28;20021;-57
2022/03/24 03:16:54;;;;;;;8.30;5.95;;;;;;;;;;2080582;28;20507;-58
2022/03/24 03:18:13;;;;;;;6.82;5.82;;;;;;;;;;2079504;28;20300;-57
2022/03/24 03:19:32;;;;;;;8.25;6.25;;;;;;;;;;2079780;28;20388;-57
2022/03/24 03:20:51;;;;;;;12.82;5.95;;;;;;;;;;2079601;28;21054;-57
2022/03/24 03:22:10;;;;;;;7.97;6.05;;;;;;;;;;2078669;28;20022;-57
2022/03/24 03:23:29;;;;;;;6.80;6.18;;;;;;;;;;2078830;28;20053;-57
2022/03/24 03:24:48;;;;;;;6.45;5.80;;;;;;;;;;2079820;28;20523;-57
2022/03/24 03:26:08;;;;;;;6.75;6.05;;;;;;;;;;2077937;28;20100;-58
2022/03/24 03:27:27;;;;;;;6.93;5.70;;;;;;;;;;2079293;28;20116;-57
2022/03/24 03:28:46;;;;;;;9.70;6.18;;;;;;;;;;2079542;28;20085;-57
2022/03/24 03:30:05;;;;;;;7.30;5.97;;;;;;;;;;2076865;28;20025;-58
2022/03/24 03:31:24;;;;;;;6.80;6.10;;;;;;;;;;2077895;28;20033;-58
2022/03/24 03:32:43;;;;;;;6.63;6.00;;;;;;;;;;2078376;28;20062;-57
2022/03/24 03:34:04;;;;;;;8.43;5.93;;;;;;;;;;2080420;28;20058;-57
2022/03/24 03:35:22;;;;;;;8.85;6.20;;;;;;;;;;2077686;28;20511;-56
2022/03/24 03:36:42;;;;;;;6.55;5.78;;;;;;;;;;2078464;28;20497;-58
2022/03/24 03:38:01;;;;;;;6.68;6.07;;;;;;;;;;2076245;28;20061;-57
2022/03/24 03:39:20;;;;;;;7.45;6.03;;;;;;;;;;2079825;28;20034;-57
2022/03/24 03:40:39;;;;;;;6.18;5.55;;;;;;;;;;2080678;28;20018;-57
2022/03/24 03:41:58;;;;;;;5.82;5.32;;;;;;;;;;2078490;28;20033;-57
2022/03/24 03:43:17;;;;;;;6.10;5.38;;;;;;;;;;2079469;28;20025;-57
2022/03/24 03:44:37;;;;;;;8.55;5.40;;;;;;;;;;2080048;28;20112;-58
2022/03/24 03:45:56;;;;;;;6.32;5.65;;;;;;;;;;2078507;28;20380;-56
2022/03/24 03:47:15;;;;;;;9.27;5.85;;;;;;;;;;2080072;28;20037;-57
2022/03/24 03:48:38;;;;;;;9.65;6.55;;;;;;;;;;2079583;28;20041;-57
2022/03/24 03:49:56;;;;;;;6.72;5.85;;;;;;;;;;2078947;28;20104;-57
2022/03/24 03:51:15;;;;;;;6.68;5.65;;;;;;;;;;2078511;28;20590;-57
2022/03/24 03:52:35;;;;;;;7.65;5.82;;;;;;;;;;2078723;28;20037;-56
2022/03/24 03:53:54;;;;;;;7.30;5.97;;;;;;;;;;2076182;28;20060;-57
2022/03/24 03:55:12;;;;;;;6.97;6.22;;;;;;;;;;2077690;28;20460;-57
2022/03/24 03:56:31;;;;;;;6.10;5.40;;;;;;;;;;2077744;28;20037;-58
2022/03/24 03:57:50;;;;;;;5.97;5.45;;;;;;;;;;2079893;28;20034;-57
2022/03/24 03:59:09;;;;;;;7.78;6.28;;;;;;;;;;2080009;28;20022;-58
2022/03/24 04:02:06;;;;;;;7.15;6.00;;;;;;;;;;2077695;28;20034;-57
2022/03/24 04:03:26;;;;;;;6.28;5.72;;;;;;;;;;2079977;28;20045;-57
2022/03/24 04:04:45;;;;;;;6.82;6.10;;;;;;;;;;2078901;28;20034;-58
2022/03/24 04:06:09;;;;;;;8.93;5.80;;;;;;;;;;2078989;28;20033;-57
2022/03/24 04:07:28;;;;;;;6.50;5.78;;;;;;;;;;2079286;28;20053;-57
2022/03/24 04:08:47;;;;;;;6.13;5.63;;;;;;;;;;2081402;28;20097;-58
2022/03/24 04:10:06;;;;;;;7.55;6.03;;;;;;;;;;2081543;28;20037;-57
2022/03/24 04:11:25;;;;;;;7.50;5.90;;;;;;;;;;2080837;28;20395;-58
2022/03/24 04:12:43;;;;;;;7.18;6.05;;;;;;;;;;2079352;28;20049;-58
2022/03/24 04:14:03;;;;;;;6.88;6.15;;;;;;;;;;2081025;28;20033;-57
2022/03/24 04:15:23;;;;;;;5.88;5.32;;;;;;;;;;2079814;28;20030;-58
2022/03/24 04:16:42;;;;;;;6.97;5.80;;;;;;;;;;2080067;28;20038;-57
2022/03/24 04:18:01;;;;;;;8.02;5.57;;;;;;;;;;2080224;28;20025;-57
2022/03/24 04:19:20;;;;;;;6.35;5.75;;;;;;;;;;2080571;28;20025;-58
2022/03/24 04:20:39;;;;;;;9.27;5.75;;;;;;;;;;2080393;28;20029;-58
2022/03/24 04:21:58;;;;;;;6.68;5.57;;;;;;;;;;2079242;28;20029;-57
2022/03/24 04:23:17;;;;;;;7.05;5.88;;;;;;;;;;2081513;28;20021;-57
2022/03/24 04:24:36;;;;;;;8.98;5.68;;;;;;;;;;2080213;28;20076;-57
2022/03/24 04:25:55;;;;;;;7.90;6.28;;;;;;;;;;2079809;28;20037;-57
2022/03/24 04:27:14;;;;;;;8.18;6.82;;;;;;;;;;2080045;28;20088;-57
2022/03/24 04:28:33;;;;;;;11.50;6.32;;;;;;;;;;2080504;28;20080;-57
2022/03/24 04:29:52;;;;;;;8.48;6.15;;;;;;;;;;2079719;28;20038;-57
2022/03/24 04:31:12;;;;;;;9.45;6.70;;;;;;;;;;2081035;28;20030;-58
2022/03/24 04:32:30;;;;;;;11.45;6.38;;;;;;;;;;2078188;28;20049;-56
2022/03/24 04:33:49;;;;;;;10.20;6.57;;;;;;;;;;2080671;28;20049;-58
2022/03/24 04:35:09;;;;;;;6.95;6.10;;;;;;;;;;2080926;28;20120;-57
2022/03/24 04:36:27;;;;;;;6.40;5.80;;;;;;;;;;2081803;28;20025;-58
2022/03/24 04:37:47;;;;;;;7.07;5.70;;;;;;;;;;2074793;28;20029;-58
2022/03/24 04:39:06;;;;;;;10.15;6.22;;;;;;;;;;2080946;28;20106;-56
2022/03/24 04:40:25;;;;;;;6.90;6.18;;;;;;;;;;2079162;28;20316;-57
2022/03/24 04:41:44;;;;;;;7.40;6.65;;;;;;;;;;2081087;28;20033;-58
2022/03/24 04:43:04;;;;;;;6.63;5.95;;;;;;;;;;2080883;28;20029;-58
2022/03/24 04:44:23;;;;;;;11.30;6.25;;;;;;;;;;2079585;28;20416;-57
2022/03/24 04:45:43;;;;;;;8.18;6.32;;;;;;;;;;2078998;28;20033;-57
2022/03/24 04:47:02;;;;;;;8.00;6.45;;;;;;;;;;2078961;28;20033;-57
2022/03/24 04:48:21;;;;;;;9.18;6.53;;;;;;;;;;2081190;28;20021;-57
2022/03/24 04:49:40;;;;;;;7.95;5.72;;;;;;;;;;2079258;28;20037;-57
2022/03/24 04:50:59;;;;;;;7.05;6.45;;;;;;;;;;2079562;28;20480;-57
2022/03/24 04:52:19;;;;;;;6.13;5.53;;;;;;;;;;2079246;28;20041;-57
2022/03/24 04:53:38;;;;;;;6.93;6.22;;;;;;;;;;2079976;28;20030;-57
2022/03/24 04:54:58;;;;;;;9.23;6.28;;;;;;;;;;2080730;28;20026;-58
2022/03/24 04:56:17;;;;;;;6.20;5.60;;;;;;;;;;2079515;28;20053;-57
2022/03/24 04:57:36;;;;;;;7.15;6.43;;;;;;;;;;2077863;28;20053;-57
2022/03/24 04:58:55;;;;;;;7.50;6.47;;;;;;;;;;2081903;28;20104;-58
2022/03/24 05:00:17;;;;;;;7.25;6.57;;;;;;;;;;2080067;28;20034;-57
2022/03/24 05:01:36;;;;;;;8.20;6.05;;;;;;;;;;2076845;28;20033;-57
2022/03/24 05:02:55;;;;;;;10.63;5.90;;;;;;;;;;2079300;28;20022;-57
2022/03/24 05:04:15;;;;;;;9.13;6.28;;;;;;;;;;2077352;28;20021;-58
2022/03/24 05:05:34;;;;;;;6.80;6.10;;;;;;;;;;2079740;28;20112;-57
2022/03/24 05:06:54;;;;;;;6.90;6.13;;;;;;;;;;2080511;28;20033;-57
2022/03/24 05:08:13;;;;;;;8.88;5.93;;;;;;;;;;2078876;28;20057;-58
2022/03/24 05:09:32;;;;;;;7.43;6.63;;;;;;;;;;2077544;28;20025;-57
2022/03/24 05:10:51;;;;;;;7.50;6.47;;;;;;;;;;2079037;28;20037;-58
2022/03/24 05:12:10;;;;;;;6.78;6.18;;;;;;;;;;2079865;28;20491;-57
2022/03/24 05:13:29;;;;;;;7.75;6.25;;;;;;;;;;2081559;28;20029;-57
2022/03/24 05:14:50;;;;;;;8.73;6.57;;;;;;;;;;2079405;28;20038;-58
2022/03/24 05:16:09;;;;;;;12.40;6.30;;;;;;;;;;2079737;28;20029;-58
2022/03/24 05:17:27;;;;;;;6.95;6.25;;;;;;;;;;2078195;28;20507;-57
2022/03/24 05:18:46;;;;;;;7.55;6.03;;;;;;;;;;2080499;28;20030;-57
2022/03/24 05:20:07;;;;;;;10.23;6.70;;;;;;;;;;2080500;28;20025;-57
2022/03/24 05:21:26;;;;;;;7.03;6.32;;;;;;;;;;2080778;28;20014;-56
2022/03/24 05:22:46;;;;;;;10.18;6.63;;;;;;;;;;2078125;28;20037;-58
2022/03/24 05:24:05;;;;;;;6.65;5.95;;;;;;;;;;2080574;28;20029;-57
2022/03/24 05:25:26;;;;;;;11.32;6.57;;;;;;;;;;2079469;28;20030;-57
2022/03/24 05:26:45;;;;;;;6.93;6.22;;;;;;;;;;2078917;28;20025;-57
2022/03/24 05:28:04;;;;;;;8.02;5.70;;;;;;;;;;2074037;28;20118;-57
2022/03/24 05:29:23;;;;;;;9.77;6.40;;;;;;;;;;2077394;28;20427;-56
2022/03/24 05:30:42;;;;;;;6.60;5.90;;;;;;;;;;2077473;28;20034;-56
2022/03/24 05:32:01;;;;;;;8.18;5.63;;;;;;;;;;2076337;28;20558;-56
2022/03/24 05:33:20;;;;;;;8.70;6.13;;;;;;;;;;2077948;28;20025;-57
2022/03/24 05:34:39;;;;;;;8.60;5.88;;;;;;;;;;2076346;28;20025;-56
2022/03/24 05:35:59;;;;;;;9.80;6.30;;;;;;;;;;2077404;28;20033;-57
2022/03/24 05:37:20;;;;;;;7.18;6.13;;;;;;;;;;2091198;22;20278;-81
2022/03/24 05:38:42;;;;;;;10.40;6.70;;;;;;;;;;2077819;28;20108;-80
2022/03/24 05:40:01;;;;;;;8.55;6.07;;;;;;;;;;2081000;28;20530;-80
2022/03/24 05:41:26;;;;;;;9.10;6.22;;;;;;;;;;2080512;28;20037;-79
2022/03/24 05:42:45;;;;;;;6.90;6.15;;;;;;;;;;2078946;28;20018;-80
2022/03/24 05:44:06;;;;;;;8.38;6.25;;;;;;;;;;2077980;28;20065;-80
2022/03/24 05:45:24;;;;;;;8.10;6.18;;;;;;;;;;2081063;28;20426;-80
2022/03/24 05:48:24;;;;;;;8.05;6.10;;;;;;;;;;2081271;28;20482;-80
2022/03/24 05:49:45;;;;;;;8.32;5.75;;;;;;;;;;2081195;28;20026;-79
2022/03/24 05:51:04;;;;;;;6.78;5.72;;;;;;;;;;2081080;28;20026;-80
2022/03/24 05:52:26;;;;;;;7.53;6.45;;;;;;;;;;2076831;28;20041;-81
2022/03/24 05:53:45;;;;;;;9.00;6.43;;;;;;;;;;2078397;28;20033;-80
2022/03/24 05:55:04;;;;;;;10.82;6.13;;;;;;;;;;2080823;28;20230;-80
2022/03/24 05:56:29;;;;;;;8.05;5.78;;;;;;;;;;2077557;28;20021;-81
2022/03/24 05:57:48;;;;;;;9.30;6.28;;;;;;;;;;2079872;28;20487;-80
2022/03/24 05:59:08;;;;;;;9.15;6.20;;;;;;;;;;2080833;28;20069;-80
2022/03/24 06:00:26;;;;;;;16.02;6.38;;;;;;;;;;2079703;28;20017;-80
2022/03/24 06:01:46;;;;;;;8.77;6.20;;;;;;;;;;2080694;28;20029;-80
2022/03/24 06:03:08;;;;;;;8.75;6.30;;;;;;;;;;2081369;28;20025;-80
2022/03/24 06:04:28;;;;;;;7.15;6.35;;;;;;;;;;2076547;28;20029;-81
2022/03/24 06:05:48;;;;;;;12.68;6.47;;;;;;;;;;2069563;28;20503;-80
2022/03/24 06:07:11;;;;;;;9.02;6.18;;;;;;;;;;2077584;28;20080;-81
2022/03/24 06:08:30;;;;;;;9.63;6.43;;;;;;;;;;2079691;28;20025;-80
2022/03/24 06:09:52;;;;;;;7.15;6.40;;;;;;;;;;2080919;28;20478;-80
2022/03/24 06:11:14;;;;;;;10.02;6.70;;;;;;;;;;2079781;28;20037;-80
2022/03/24 06:12:35;;;;;;;9.32;5.88;;;;;;;;;;2075102;28;20022;-80
2022/03/24 06:13:54;;;;;;;10.82;6.82;;;;;;;;;;2073145;28;20037;-79
2022/03/24 06:15:13;;;;;;;13.40;6.95;;;;;;;;;;2062933;28;20082;-80
2022/03/24 06:16:32;;;;;;;7.13;6.10;;;;;;;;;;2066044;28;20503;-80
2022/03/24 06:17:51;;;;;;;6.32;5.70;;;;;;;;;;2071384;28;20034;-78
2022/03/24 06:19:11;;;;;;;10.57;6.93;;;;;;;;;;2072297;28;20030;-80
2022/03/24 06:20:30;;;;;;;12.55;6.90;;;;;;;;;;2071890;28;20434;-81
2022/03/24 06:21:49;;;;;;;7.13;6.40;;;;;;;;;;2073022;28;20030;-80
2022/03/24 06:23:08;;;;;;;10.38;6.95;;;;;;;;;;2069186;28;20022;-80
2022/03/24 06:24:30;;;;;;;11.73;6.43;;;;;;;;;;2073122;28;20492;-83
2022/03/24 06:25:50;;;;;;;12.52;6.50;;;;;;;;;;2077889;28;20116;-82
2022/03/24 06:27:09;;;;;;;14.15;6.43;;;;;;;;;;2079278;28;20108;-80
2022/03/24 06:28:29;;;;;;;10.05;6.50;;;;;;;;;;2072320;28;20026;-81
2022/03/24 06:29:48;;;;;;;13.52;6.75;;;;;;;;;;2066066;28;20110;-81
2022/03/24 06:31:07;;;;;;;9.73;6.85;;;;;;;;;;2068965;28;20511;-79
2022/03/24 06:32:27;;;;;;;7.47;6.43;;;;;;;;;;2071486;28;20061;-84
2022/03/24 06:33:46;;;;;;;7.82;6.60;;;;;;;;;;2073351;28;20030;-82
2022/03/24 06:35:12;;;;;;;9.75;6.85;;;;;;;;;;2072214;28;20034;-82
2022/03/24 06:36:32;;;;;;;14.93;6.90;;;;;;;;;;2078440;28;20100;-84
2022/03/24 06:37:53;;;;;;;11.75;7.40;;;;;;;;;;2074903;28;20042;-79
2022/03/24 06:39:12;;;;;;;9.95;6.78;;;;;;;;;;2070415;28;20034;-83
2022/03/24 06:40:33;;;;;;;12.20;6.40;;;;;;;;;;2072531;28;20026;-83
2022/03/24 06:41:55;;;;;;;15.32;7.22;;;;;;;;;;2072723;28;20030;-83
2022/03/24 06:43:36;;;;;;;8.23;6.25;;;;;;;;;;2069945;28;20021;-82
2022/03/24 06:44:55;;;;;;;9.55;7.47;;;;;;;;;;2080210;28;20398;-82
2022/03/24 06:46:14;;;;;;;10.20;6.53;;;;;;;;;;2071291;28;20026;-81
2022/03/24 06:47:33;;;;;;;11.20;6.70;;;;;;;;;;2072313;28;20574;-82
2022/03/24 06:48:55;;;;;;;12.30;6.65;;;;;;;;;;2071960;28;20089;-82
2022/03/24 06:50:14;;;;;;;13.73;7.00;;;;;;;;;;2078334;28;20037;-82
2022/03/24 06:51:34;;;;;;;9.85;6.50;;;;;;;;;;2072091;28;20026;-81
2022/03/24 06:52:53;;;;;;;10.60;6.93;;;;;;;;;;2069868;28;20030;-84
2022/03/24 06:54:15;;;;;;;11.13;7.03;;;;;;;;;;2071604;28;20030;-82
2022/03/24 06:55:41;;;;;;;14.77;6.72;;;;;;;;;;2065159;28;20031;-80
2022/03/24 06:57:03;;;;;;;8.98;6.43;;;;;;;;;;2068282;28;20038;-82
2022/03/24 06:58:22;;;;;;;7.47;6.63;;;;;;;;;;2074198;28;20100;-79
2022/03/24 06:59:43;;;;;;;10.15;6.35;;;;;;;;;;2070359;28;20431;-80
2022/03/24 07:01:02;;;;;;;11.63;6.28;;;;;;;;;;2071879;28;20018;-80
2022/03/24 07:02:21;;;;;;;16.77;6.80;;;;;;;;;;2068921;28;20025;-80
2022/03/24 07:03:40;;;;;;;6.65;5.95;;;;;;;;;;2072648;28;20034;-80
2022/03/24 07:05:00;;;;;;;11.25;6.28;;;;;;;;;;2072140;28;20034;-80
2022/03/24 07:06:19;;;;;;;11.13;7.07;;;;;;;;;;2068386;28;20058;-80
2022/03/24 07:07:38;;;;;;;13.60;6.22;;;;;;;;;;2074599;28;20037;-80
2022/03/24 07:08:57;;;;;;;9.88;6.63;;;;;;;;;;2070803;28;20125;-80
2022/03/24 07:10:17;;;;;;;10.88;6.45;;;;;;;;;;2072862;28;20403;-79
2022/03/24 07:11:39;;;;;;;8.15;6.47;;;;;;;;;;2072418;28;20033;-79
2022/03/24 07:12:59;;;;;;;8.68;6.32;;;;;;;;;;2072835;28;20117;-79
2022/03/24 07:14:18;;;;;;;9.90;6.55;;;;;;;;;;2072880;28;20030;-82
2022/03/24 07:15:40;;;;;;;11.80;7.10;;;;;;;;;;2073472;28;20042;-82
2022/03/24 07:16:59;;;;;;;11.10;7.38;;;;;;;;;;2072668;28;20029;-80
2022/03/24 07:18:18;;;;;;;9.40;6.22;;;;;;;;;;2073176;28;20387;-81
2022/03/24 07:19:37;;;;;;;7.18;6.50;;;;;;;;;;2072118;28;20069;-80
2022/03/24 07:20:57;;;;;;;10.63;7.13;;;;;;;;;;2072487;28;20025;-80
2022/03/24 07:22:16;;;;;;;13.05;6.28;;;;;;;;;;2072134;28;20022;-80
2022/03/24 07:23:35;;;;;;;12.25;5.75;;;;;;;;;;2072648;28;20026;-78
2022/03/24 07:24:54;;;;;;;12.63;6.65;;;;;;;;;;2068583;28;20042;-79
2022/03/24 07:26:13;;;;;;;9.60;6.38;;;;;;;;;;2072644;28;20022;-78
2022/03/24 07:27:32;;;;;;;11.48;6.70;;;;;;;;;;2072345;28;20029;-84
2022/03/24 07:28:53;;;;;;;12.35;6.82;;;;;;;;;;2072480;28;20022;-80
2022/03/24 07:30:13;;;;;;;11.30;6.32;;;;;;;;;;2069976;28;20109;-79
2022/03/24 07:31:32;;;;;;;10.80;6.57;;;;;;;;;;2069232;28;20030;-81
2022/03/24 07:32:51;;;;;;;11.30;6.85;;;;;;;;;;2069219;28;20042;-81
2022/03/24 07:34:11;;;;;;;13.60;7.28;;;;;;;;;;2068982;28;20021;-81
2022/03/24 07:35:33;;;;;;;10.40;6.53;;;;;;;;;;2070691;28;20041;-81
2022/03/24 07:36:51;;;;;;;12.35;6.60;;;;;;;;;;2068978;28;20021;-81
2022/03/24 07:38:11;;;;;;;8.05;6.57;;;;;;;;;;2068926;28;20133;-81
2022/03/24 07:39:31;;;;;;;7.93;6.13;;;;;;;;;;2072012;28;20034;-81
2022/03/24 07:40:50;;;;;;;10.23;6.47;;;;;;;;;;2072227;28;20503;-81
2022/03/24 07:42:09;;;;;;;10.25;6.47;;;;;;;;;;2078636;28;20100;-81
2022/03/24 07:43:29;;;;;;;12.82;6.55;;;;;;;;;;2073029;28;20030;-81
2022/03/24 07:44:51;;;;;;;7.80;6.15;;;;;;;;;;2071040;28;20034;-81
2022/03/24 07:46:14;;;;;;;14.50;6.40;;;;;;;;;;2074271;28;20046;-80
2022/03/24 07:47:35;;;;;;;10.98;7.15;;;;;;;;;;2075212;28;20483;-81
2022/03/24 07:48:57;;;;;;;8.65;6.25;;;;;;;;;;2074165;28;20029;-82
2022/03/24 07:50:16;;;;;;;11.68;6.30;;;;;;;;;;2073514;28;20066;-81
2022/03/24 07:51:36;;;;;;;11.63;6.93;;;;;;;;;;2074521;28;20026;-82
2022/03/24 07:52:55;;;;;;;16.15;6.93;;;;;;;;;;2073795;28;20034;-81
2022/03/24 07:54:30;;;;;;;10.85;6.57;;;;;;;;;;2074107;28;20089;-81
2022/03/24 07:55:49;;;;;;;10.68;6.68;;;;;;;;;;2074366;28;20041;-82
2022/03/24 07:57:08;;;;;;;8.38;6.80;;;;;;;;;;2073911;28;20041;-81
2022/03/24 07:58:27;;;;;;;9.25;6.30;;;;;;;;;;2078900;28;20398;-81
2022/03/24 07:59:49;;;;;;;9.43;6.30;;;;;;;;;;2073201;28;20034;-81
2022/03/24 08:01:09;;;;;;;10.30;6.72;;;;;;;;;;2074259;28;20030;-81